sensor_id;sensor_type;location;lat;lon;timestamp;temperature;humidity
2657;DHT22;1338;48.176;11.792;2023-10-09T00:00:35;11.90;1.00
2657;DHT22;1338;48.176;11.792;2023-10-09T00:03:30;11.90;1.00
2657;DHT22;1338;48.176;11.792;2023-10-09T00:06:00;12.00;1.00
2657;DHT22;1338;48.176;11.792;2023-10-09T00:08:30;12.00;1.00
2657;DHT22;1338;48.176;11.792;2023-10-09T00:11:00;11.90;1.00
2657;DHT22;1338;48.176;11.792;2023-10-09T00:13:40;11.90;1.00
2657;DHT22;1338;48.176;11.792;2023-10-09T00:16:19;11.80;1.00
2657;DHT22;1338;48.176;11.792;2023-10-09T00:19:00;11.80;1.00
2657;DHT22;1338;48.176;11.792;2023-10-09T00:21:41;11.80;1.00
2657;DHT22;1338;48.176;11.792;2023-10-09T00:24:10;11.70;1.00
2657;DHT22;1338;48.176;11.792;2023-10-09T00:26:43;11.80;1.00
2657;DHT22;1338;48.176;11.792;2023-10-09T00:29:13;11.80;1.00
2657;DHT22;1338;48.176;11.792;2023-10-09T00:31:51;11.80;1.00
2657;DHT22;1338;48.176;11.792;2023-10-09T00:34:23;11.90;1.00
2657;DHT22;1338;48.176;11.792;2023-10-09T00:36:53;11.90;99.90
2657;DHT22;1338;48.176;11.792;2023-10-09T00:39:22;12.10;99.90
2657;DHT22;1338;48.176;11.792;2023-10-09T00:42:02;12.20;99.90
2657;DHT22;1338;48.176;11.792;2023-10-09T00:44:33;12.20;99.90
2657;DHT22;1338;48.176;11.792;2023-10-09T00:47:12;12.20;99.90
2657;DHT22;1338;48.176;11.792;2023-10-09T00:49:54;12.20;99.90
2657;DHT22;1338;48.176;11.792;2023-10-09T00:52:29;12.10;99.90
2657;DHT22;1338;48.176;11.792;2023-10-09T00:55:06;12.00;99.90
2657;DHT22;1338;48.176;11.792;2023-10-09T00:57:43;12.00;99.90
2657;DHT22;1338;48.176;11.792;2023-10-09T01:00:18;11.90;99.90
2657;DHT22;1338;48.176;11.792;2023-10-09T01:03:02;11.90;99.90
2657;DHT22;1338;48.176;11.792;2023-10-09T01:05:48;12.00;99.90
2657;DHT22;1338;48.176;11.792;2023-10-09T01:08:26;12.00;99.90
2657;DHT22;1338;48.176;11.792;2023-10-09T01:11:00;12.20;99.90
2657;DHT22;1338;48.176;11.792;2023-10-09T01:13:37;12.30;99.90
2657;DHT22;1338;48.176;11.792;2023-10-09T01:16:21;12.40;99.90
2657;DHT22;1338;48.176;11.792;2023-10-09T01:19:13;12.50;99.90
2657;DHT22;1338;48.176;11.792;2023-10-09T01:21:55;12.60;75.30
2657;DHT22;1338;48.176;11.792;2023-10-09T01:24:52;12.50;35.60
2657;DHT22;1338;48.176;11.792;2023-10-09T01:27:22;12.40;47.40
2657;DHT22;1338;48.176;11.792;2023-10-09T01:30:00;12.30;81.10
2657;DHT22;1338;48.176;11.792;2023-10-09T01:32:28;12.20;99.00
2657;DHT22;1338;48.176;11.792;2023-10-09T01:34:58;12.10;99.90
2657;DHT22;1338;48.176;11.792;2023-10-09T01:37:27;12.10;99.90
2657;DHT22;1338;48.176;11.792;2023-10-09T01:39:58;12.10;99.90
2657;DHT22;1338;48.176;11.792;2023-10-09T01:42:47;12.10;99.90
2657;DHT22;1338;48.176;11.792;2023-10-09T01:45:16;12.20;99.90
2657;DHT22;1338;48.176;11.792;2023-10-09T01:47:54;12.00;99.90
2657;DHT22;1338;48.176;11.792;2023-10-09T01:50:25;12.00;99.90
2657;DHT22;1338;48.176;11.792;2023-10-09T01:52:59;12.00;99.90
2657;DHT22;1338;48.176;11.792;2023-10-09T01:55:32;12.00;99.90
2657;DHT22;1338;48.176;11.792;2023-10-09T01:58:04;12.10;99.90
2657;DHT22;1338;48.176;11.792;2023-10-09T02:00:34;12.00;99.90
2657;DHT22;1338;48.176;11.792;2023-10-09T02:03:10;12.00;99.90
2657;DHT22;1338;48.176;11.792;2023-10-09T02:05:53;12.00;99.90
2657;DHT22;1338;48.176;11.792;2023-10-09T02:08:27;12.00;99.90
2657;DHT22;1338;48.176;11.792;2023-10-09T02:10:58;12.10;99.90
2657;DHT22;1338;48.176;11.792;2023-10-09T02:13:30;12.10;99.60
2657;DHT22;1338;48.176;11.792;2023-10-09T02:16:25;12.20;82.20
2657;DHT22;1338;48.176;11.792;2023-10-09T02:19:07;12.10;71.10
2657;DHT22;1338;48.176;11.792;2023-10-09T02:22:03;12.20;36.50
2657;DHT22;1338;48.176;11.792;2023-10-09T02:24:40;12.30;1.00
2657;DHT22;1338;48.176;11.792;2023-10-09T02:27:30;12.30;1.00
2657;DHT22;1338;48.176;11.792;2023-10-09T02:30:20;12.30;1.00
2657;DHT22;1338;48.176;11.792;2023-10-09T02:32:55;12.40;1.00
2657;DHT22;1338;48.176;11.792;2023-10-09T02:35:34;12.60;1.00
2657;DHT22;1338;48.176;11.792;2023-10-09T02:38:06;12.40;1.00
2657;DHT22;1338;48.176;11.792;2023-10-09T02:40:37;12.30;1.00
2657;DHT22;1338;48.176;11.792;2023-10-09T02:43:13;12.10;1.00
2657;DHT22;1338;48.176;11.792;2023-10-09T02:45:45;12.00;1.00
2657;DHT22;1338;48.176;11.792;2023-10-09T02:48:17;11.90;30.60
2657;DHT22;1338;48.176;11.792;2023-10-09T02:50:47;11.70;97.90
2657;DHT22;1338;48.176;11.792;2023-10-09T02:53:18;11.60;99.90
2657;DHT22;1338;48.176;11.792;2023-10-09T02:55:56;11.40;99.90
2657;DHT22;1338;48.176;11.792;2023-10-09T02:58:42;11.30;99.90
2657;DHT22;1338;48.176;11.792;2023-10-09T03:01:11;11.20;99.90
2657;DHT22;1338;48.176;11.792;2023-10-09T03:03:41;11.10;99.90
2657;DHT22;1338;48.176;11.792;2023-10-09T03:06:15;11.10;99.90
2657;DHT22;1338;48.176;11.792;2023-10-09T03:08:52;11.10;99.90
2657;DHT22;1338;48.176;11.792;2023-10-09T03:11:22;11.10;99.90
2657;DHT22;1338;48.176;11.792;2023-10-09T03:13:52;11.00;1.00
2657;DHT22;1338;48.176;11.792;2023-10-09T03:16:22;10.90;1.00
2657;DHT22;1338;48.176;11.792;2023-10-09T03:18:52;11.00;1.00
2657;DHT22;1338;48.176;11.792;2023-10-09T03:21:21;11.10;99.90
2657;DHT22;1338;48.176;11.792;2023-10-09T03:23:49;11.30;99.90
2657;DHT22;1338;48.176;11.792;2023-10-09T03:26:18;11.40;99.90
2657;DHT22;1338;48.176;11.792;2023-10-09T03:28:49;11.50;99.90
2657;DHT22;1338;48.176;11.792;2023-10-09T03:31:19;11.60;99.90
2657;DHT22;1338;48.176;11.792;2023-10-09T03:33:49;11.60;99.90
2657;DHT22;1338;48.176;11.792;2023-10-09T03:36:18;11.70;99.90
2657;DHT22;1338;48.176;11.792;2023-10-09T03:38:47;11.70;99.90
2657;DHT22;1338;48.176;11.792;2023-10-09T03:41:16;11.80;99.90
2657;DHT22;1338;48.176;11.792;2023-10-09T03:43:46;11.70;99.90
2657;DHT22;1338;48.176;11.792;2023-10-09T03:46:15;11.70;99.90
2657;DHT22;1338;48.176;11.792;2023-10-09T03:48:50;11.50;99.90
2657;DHT22;1338;48.176;11.792;2023-10-09T03:51:19;11.30;99.90
2657;DHT22;1338;48.176;11.792;2023-10-09T03:53:49;11.00;99.90
2657;DHT22;1338;48.176;11.792;2023-10-09T03:56:20;10.90;99.90
2657;DHT22;1338;48.176;11.792;2023-10-09T03:58:50;11.10;99.90
2657;DHT22;1338;48.176;11.792;2023-10-09T04:01:19;11.60;1.00
2657;DHT22;1338;48.176;11.792;2023-10-09T04:03:56;11.90;1.00
2657;DHT22;1338;48.176;11.792;2023-10-09T04:06:29;11.90;1.00
2657;DHT22;1338;48.176;11.792;2023-10-09T04:09:05;11.60;1.00
2657;DHT22;1338;48.176;11.792;2023-10-09T04:11:54;11.20;1.00
2657;DHT22;1338;48.176;11.792;2023-10-09T04:14:47;10.70;99.90
2657;DHT22;1338;48.176;11.792;2023-10-09T04:17:22;10.40;1.00
2657;DHT22;1338;48.176;11.792;2023-10-09T04:20:10;10.30;1.00
2657;DHT22;1338;48.176;11.792;2023-10-09T04:23:04;10.00;1.00
2657;DHT22;1338;48.176;11.792;2023-10-09T04:25:33;9.90;1.00
2657;DHT22;1338;48.176;11.792;2023-10-09T04:28:18;9.80;1.00
2657;DHT22;1338;48.176;11.792;2023-10-09T04:30:49;9.80;1.00
2657;DHT22;1338;48.176;11.792;2023-10-09T04:33:23;9.70;1.00
2657;DHT22;1338;48.176;11.792;2023-10-09T04:36:10;9.70;99.90
2657;DHT22;1338;48.176;11.792;2023-10-09T04:38:52;9.70;99.90
2657;DHT22;1338;48.176;11.792;2023-10-09T04:41:38;9.70;99.90
2657;DHT22;1338;48.176;11.792;2023-10-09T04:44:19;9.60;99.90
2657;DHT22;1338;48.176;11.792;2023-10-09T04:46:51;9.60;99.90
2657;DHT22;1338;48.176;11.792;2023-10-09T04:49:40;9.70;99.90
2657;DHT22;1338;48.176;11.792;2023-10-09T04:52:19;9.80;99.90
2657;DHT22;1338;48.176;11.792;2023-10-09T04:55:08;9.80;2.10
2657;DHT22;1338;48.176;11.792;2023-10-09T04:57:47;9.60;99.90
2657;DHT22;1338;48.176;11.792;2023-10-09T05:00:29;11.40;1.00
2657;DHT22;1338;48.176;11.792;2023-10-09T05:03:14;11.80;99.90
2657;DHT22;1338;48.176;11.792;2023-10-09T05:05:55;11.60;1.00
2657;DHT22;1338;48.176;11.792;2023-10-09T05:08:29;12.30;1.00
2657;DHT22;1338;48.176;11.792;2023-10-09T05:10:58;12.10;99.90
2657;DHT22;1338;48.176;11.792;2023-10-09T05:14:01;10.90;99.90
2657;DHT22;1338;48.176;11.792;2023-10-09T05:16:51;10.30;1.00
2657;DHT22;1338;48.176;11.792;2023-10-09T05:19:47;10.00;1.00
2657;DHT22;1338;48.176;11.792;2023-10-09T05:23:05;10.00;1.00
2657;DHT22;1338;48.176;11.792;2023-10-09T05:25:52;10.00;1.00
2657;DHT22;1338;48.176;11.792;2023-10-09T05:28:26;10.00;1.00
2657;DHT22;1338;48.176;11.792;2023-10-09T05:31:17;10.40;1.00
2657;DHT22;1338;48.176;11.792;2023-10-09T05:33:59;10.20;1.00
2657;DHT22;1338;48.176;11.792;2023-10-09T05:36:28;10.10;1.00
2657;DHT22;1338;48.176;11.792;2023-10-09T05:39:03;10.00;1.00
2657;DHT22;1338;48.176;11.792;2023-10-09T05:41:51;10.10;1.00
2657;DHT22;1338;48.176;11.792;2023-10-09T05:44:27;10.00;1.00
2657;DHT22;1338;48.176;11.792;2023-10-09T05:47:13;10.10;1.00
2657;DHT22;1338;48.176;11.792;2023-10-09T05:49:56;10.20;1.00
2657;DHT22;1338;48.176;11.792;2023-10-09T05:52:48;10.30;1.00
2657;DHT22;1338;48.176;11.792;2023-10-09T05:55:34;10.40;1.00
2657;DHT22;1338;48.176;11.792;2023-10-09T05:58:22;10.50;1.00
2657;DHT22;1338;48.176;11.792;2023-10-09T06:01:09;10.70;1.00
2657;DHT22;1338;48.176;11.792;2023-10-09T06:03:56;10.80;1.00
2657;DHT22;1338;48.176;11.792;2023-10-09T06:06:32;10.90;1.00
2657;DHT22;1338;48.176;11.792;2023-10-09T06:09:11;11.10;1.00
2657;DHT22;1338;48.176;11.792;2023-10-09T06:12:14;11.20;99.90
2657;DHT22;1338;48.176;11.792;2023-10-09T06:14:57;11.30;99.90
2657;DHT22;1338;48.176;11.792;2023-10-09T06:17:46;11.40;99.90
2657;DHT22;1338;48.176;11.792;2023-10-09T06:20:18;11.60;99.90
2657;DHT22;1338;48.176;11.792;2023-10-09T06:23:04;11.60;99.90
2657;DHT22;1338;48.176;11.792;2023-10-09T06:25:43;11.90;99.90
2657;DHT22;1338;48.176;11.792;2023-10-09T06:28:19;12.00;99.90
2657;DHT22;1338;48.176;11.792;2023-10-09T06:31:02;12.10;78.40
2657;DHT22;1338;48.176;11.792;2023-10-09T06:33:49;12.30;39.20
2657;DHT22;1338;48.176;11.792;2023-10-09T06:36:34;12.40;1.80
2657;DHT22;1338;48.176;11.792;2023-10-09T06:39:13;12.50;1.00
2657;DHT22;1338;48.176;11.792;2023-10-09T06:41:59;12.60;1.00
2657;DHT22;1338;48.176;11.792;2023-10-09T06:45:00;12.80;1.00
2657;DHT22;1338;48.176;11.792;2023-10-09T06:47:33;13.00;1.00
2657;DHT22;1338;48.176;11.792;2023-10-09T06:50:09;13.10;1.00
2657;DHT22;1338;48.176;11.792;2023-10-09T06:52:52;13.30;1.00
2657;DHT22;1338;48.176;11.792;2023-10-09T06:55:53;13.50;1.00
2657;DHT22;1338;48.176;11.792;2023-10-09T06:58:33;13.70;1.00
2657;DHT22;1338;48.176;11.792;2023-10-09T07:01:10;13.90;1.00
2657;DHT22;1338;48.176;11.792;2023-10-09T07:03:54;14.00;1.00
2657;DHT22;1338;48.176;11.792;2023-10-09T07:06:27;14.10;1.00
2657;DHT22;1338;48.176;11.792;2023-10-09T07:09:13;14.30;1.00
2657;DHT22;1338;48.176;11.792;2023-10-09T07:11:47;14.60;1.00
2657;DHT22;1338;48.176;11.792;2023-10-09T07:14:26;14.70;1.00
2657;DHT22;1338;48.176;11.792;2023-10-09T07:17:15;14.90;1.00
2657;DHT22;1338;48.176;11.792;2023-10-09T07:20:13;14.90;1.00
2657;DHT22;1338;48.176;11.792;2023-10-09T07:22:43;15.10;1.00
2657;DHT22;1338;48.176;11.792;2023-10-09T07:25:23;15.30;1.00
2657;DHT22;1338;48.176;11.792;2023-10-09T07:28:10;15.30;1.00
2657;DHT22;1338;48.176;11.792;2023-10-09T07:31:04;15.40;1.00
2657;DHT22;1338;48.176;11.792;2023-10-09T07:33:36;15.50;1.00
2657;DHT22;1338;48.176;11.792;2023-10-09T07:36:30;15.70;1.00
2657;DHT22;1338;48.176;11.792;2023-10-09T07:39:06;16.00;99.90
2657;DHT22;1338;48.176;11.792;2023-10-09T07:41:45;16.40;99.90
2657;DHT22;1338;48.176;11.792;2023-10-09T07:44:23;16.80;99.90
2657;DHT22;1338;48.176;11.792;2023-10-09T07:47:10;17.20;99.90
2657;DHT22;1338;48.176;11.792;2023-10-09T07:49:45;17.60;99.90
2657;DHT22;1338;48.176;11.792;2023-10-09T07:52:29;17.70;99.90
2657;DHT22;1338;48.176;11.792;2023-10-09T07:54:58;17.80;99.90
2657;DHT22;1338;48.176;11.792;2023-10-09T07:57:44;18.30;81.60
2657;DHT22;1338;48.176;11.792;2023-10-09T08:00:19;18.50;1.00
2657;DHT22;1338;48.176;11.792;2023-10-09T08:03:26;18.40;1.00
2657;DHT22;1338;48.176;11.792;2023-10-09T08:06:00;18.50;1.00
2657;DHT22;1338;48.176;11.792;2023-10-09T08:08:58;18.60;1.00
2657;DHT22;1338;48.176;11.792;2023-10-09T08:11:49;18.80;1.00
2657;DHT22;1338;48.176;11.792;2023-10-09T08:15:02;19.10;1.00
2657;DHT22;1338;48.176;11.792;2023-10-09T08:17:56;19.60;1.00
2657;DHT22;1338;48.176;11.792;2023-10-09T08:20:27;19.60;1.00
2657;DHT22;1338;48.176;11.792;2023-10-09T08:23:03;19.70;1.00
2657;DHT22;1338;48.176;11.792;2023-10-09T08:25:33;19.70;1.00
2657;DHT22;1338;48.176;11.792;2023-10-09T08:28:17;19.80;1.00
2657;DHT22;1338;48.176;11.792;2023-10-09T08:31:00;19.80;1.00
2657;DHT22;1338;48.176;11.792;2023-10-09T08:33:46;20.00;1.00
2657;DHT22;1338;48.176;11.792;2023-10-09T08:36:27;20.00;1.00
2657;DHT22;1338;48.176;11.792;2023-10-09T08:39:05;20.20;1.00
2657;DHT22;1338;48.176;11.792;2023-10-09T08:41:46;20.20;1.00
2657;DHT22;1338;48.176;11.792;2023-10-09T08:44:15;20.30;1.00
2657;DHT22;1338;48.176;11.792;2023-10-09T08:46:49;20.40;1.00
2657;DHT22;1338;48.176;11.792;2023-10-09T08:49:18;20.50;1.00
2657;DHT22;1338;48.176;11.792;2023-10-09T08:51:49;20.40;1.00
2657;DHT22;1338;48.176;11.792;2023-10-09T08:54:20;20.30;1.00
2657;DHT22;1338;48.176;11.792;2023-10-09T08:56:50;20.50;1.00
2657;DHT22;1338;48.176;11.792;2023-10-09T08:59:19;20.60;1.00
2657;DHT22;1338;48.176;11.792;2023-10-09T09:01:52;20.70;1.00
2657;DHT22;1338;48.176;11.792;2023-10-09T09:04:38;20.70;1.00
2657;DHT22;1338;48.176;11.792;2023-10-09T09:07:24;20.60;1.00
2657;DHT22;1338;48.176;11.792;2023-10-09T09:09:55;20.30;1.00
2657;DHT22;1338;48.176;11.792;2023-10-09T09:12:32;20.40;1.00
2657;DHT22;1338;48.176;11.792;2023-10-09T09:15:13;20.70;1.00
2657;DHT22;1338;48.176;11.792;2023-10-09T09:17:48;20.70;1.00
2657;DHT22;1338;48.176;11.792;2023-10-09T09:20:22;20.70;1.00
2657;DHT22;1338;48.176;11.792;2023-10-09T09:22:55;20.70;1.00
2657;DHT22;1338;48.176;11.792;2023-10-09T09:25:41;20.80;1.00
2657;DHT22;1338;48.176;11.792;2023-10-09T09:28:28;20.90;1.00
2657;DHT22;1338;48.176;11.792;2023-10-09T09:31:09;20.90;1.00
2657;DHT22;1338;48.176;11.792;2023-10-09T09:33:41;20.90;1.00
2657;DHT22;1338;48.176;11.792;2023-10-09T09:36:11;21.10;1.00
2657;DHT22;1338;48.176;11.792;2023-10-09T09:38:39;21.10;1.00
2657;DHT22;1338;48.176;11.792;2023-10-09T09:41:16;21.20;1.00
2657;DHT22;1338;48.176;11.792;2023-10-09T09:43:55;20.90;1.00
2657;DHT22;1338;48.176;11.792;2023-10-09T09:46:25;21.10;1.00
2657;DHT22;1338;48.176;11.792;2023-10-09T09:49:02;21.30;1.00
2657;DHT22;1338;48.176;11.792;2023-10-09T09:51:33;21.40;1.00
2657;DHT22;1338;48.176;11.792;2023-10-09T09:54:03;21.40;1.00
2657;DHT22;1338;48.176;11.792;2023-10-09T09:56:37;21.50;1.00
2657;DHT22;1338;48.176;11.792;2023-10-09T09:59:11;21.50;1.00
2657;DHT22;1338;48.176;11.792;2023-10-09T10:01:49;21.60;1.00
2657;DHT22;1338;48.176;11.792;2023-10-09T10:04:28;21.50;1.00
2657;DHT22;1338;48.176;11.792;2023-10-09T10:07:02;21.60;1.00
2657;DHT22;1338;48.176;11.792;2023-10-09T10:09:37;21.60;1.00
2657;DHT22;1338;48.176;11.792;2023-10-09T10:12:09;21.50;1.00
2657;DHT22;1338;48.176;11.792;2023-10-09T10:14:53;21.60;1.00
2657;DHT22;1338;48.176;11.792;2023-10-09T10:17:25;21.70;1.00
2657;DHT22;1338;48.176;11.792;2023-10-09T10:20:05;21.60;1.00
2657;DHT22;1338;48.176;11.792;2023-10-09T10:23:15;21.70;1.00
2657;DHT22;1338;48.176;11.792;2023-10-09T10:25:47;21.50;1.00
2657;DHT22;1338;48.176;11.792;2023-10-09T10:28:29;21.70;1.00
2657;DHT22;1338;48.176;11.792;2023-10-09T10:31:08;21.80;1.00
2657;DHT22;1338;48.176;11.792;2023-10-09T10:34:04;21.80;1.00
2657;DHT22;1338;48.176;11.792;2023-10-09T10:36:38;21.70;1.00
2657;DHT22;1338;48.176;11.792;2023-10-09T10:39:10;21.70;1.00
2657;DHT22;1338;48.176;11.792;2023-10-09T10:41:56;21.80;1.00
2657;DHT22;1338;48.176;11.792;2023-10-09T10:44:30;21.90;1.00
2657;DHT22;1338;48.176;11.792;2023-10-09T10:47:05;21.90;1.00
2657;DHT22;1338;48.176;11.792;2023-10-09T10:50:03;21.90;1.00
2657;DHT22;1338;48.176;11.792;2023-10-09T10:53:11;21.80;1.00
2657;DHT22;1338;48.176;11.792;2023-10-09T10:55:55;21.80;1.00
2657;DHT22;1338;48.176;11.792;2023-10-09T10:58:52;22.00;1.00
2657;DHT22;1338;48.176;11.792;2023-10-09T11:01:37;21.80;1.00
2657;DHT22;1338;48.176;11.792;2023-10-09T11:04:25;21.90;1.00
2657;DHT22;1338;48.176;11.792;2023-10-09T11:07:06;21.80;1.00
2657;DHT22;1338;48.176;11.792;2023-10-09T11:09:43;21.90;1.00
2657;DHT22;1338;48.176;11.792;2023-10-09T11:12:26;22.00;1.00
2657;DHT22;1338;48.176;11.792;2023-10-09T11:15:08;22.50;1.00
2657;DHT22;1338;48.176;11.792;2023-10-09T11:18:01;22.50;1.00
2657;DHT22;1338;48.176;11.792;2023-10-09T11:20:34;22.30;1.00
2657;DHT22;1338;48.176;11.792;2023-10-09T11:23:04;22.60;1.00
2657;DHT22;1338;48.176;11.792;2023-10-09T11:25:45;22.80;1.00
2657;DHT22;1338;48.176;11.792;2023-10-09T11:28:21;22.80;1.00
2657;DHT22;1338;48.176;11.792;2023-10-09T11:31:06;22.90;1.00
2657;DHT22;1338;48.176;11.792;2023-10-09T11:33:45;23.30;1.00
2657;DHT22;1338;48.176;11.792;2023-10-09T11:36:14;23.30;1.00
2657;DHT22;1338;48.176;11.792;2023-10-09T11:38:44;22.90;1.00
2657;DHT22;1338;48.176;11.792;2023-10-09T11:41:14;22.70;1.00
2657;DHT22;1338;48.176;11.792;2023-10-09T11:44:01;22.50;1.00
2657;DHT22;1338;48.176;11.792;2023-10-09T11:46:32;22.60;1.00
2657;DHT22;1338;48.176;11.792;2023-10-09T11:49:16;22.50;1.00
2657;DHT22;1338;48.176;11.792;2023-10-09T11:52:07;22.40;1.00
2657;DHT22;1338;48.176;11.792;2023-10-09T11:54:55;22.40;1.00
2657;DHT22;1338;48.176;11.792;2023-10-09T11:57:26;22.20;1.00
2657;DHT22;1338;48.176;11.792;2023-10-09T12:00:01;22.10;1.00
2657;DHT22;1338;48.176;11.792;2023-10-09T12:02:35;22.10;1.00
2657;DHT22;1338;48.176;11.792;2023-10-09T12:05:11;22.10;1.00
2657;DHT22;1338;48.176;11.792;2023-10-09T12:07:48;22.10;1.00
2657;DHT22;1338;48.176;11.792;2023-10-09T12:10:21;22.10;1.00
2657;DHT22;1338;48.176;11.792;2023-10-09T12:12:53;22.10;1.00
2657;DHT22;1338;48.176;11.792;2023-10-09T12:15:25;22.20;1.00
2657;DHT22;1338;48.176;11.792;2023-10-09T12:18:05;22.10;1.00
2657;DHT22;1338;48.176;11.792;2023-10-09T12:20:39;22.20;1.00
2657;DHT22;1338;48.176;11.792;2023-10-09T12:23:08;22.10;1.00
2657;DHT22;1338;48.176;11.792;2023-10-09T12:25:41;22.00;1.00
2657;DHT22;1338;48.176;11.792;2023-10-09T12:28:12;22.20;1.00
2657;DHT22;1338;48.176;11.792;2023-10-09T12:30:41;22.00;1.00
2657;DHT22;1338;48.176;11.792;2023-10-09T12:33:09;21.90;1.00
2657;DHT22;1338;48.176;11.792;2023-10-09T12:35:41;21.80;1.00
2657;DHT22;1338;48.176;11.792;2023-10-09T12:38:14;21.80;1.00
2657;DHT22;1338;48.176;11.792;2023-10-09T12:41:03;21.70;1.00
2657;DHT22;1338;48.176;11.792;2023-10-09T12:44:01;21.60;1.00
2657;DHT22;1338;48.176;11.792;2023-10-09T12:47:03;21.60;1.00
2657;DHT22;1338;48.176;11.792;2023-10-09T12:49:32;21.50;1.00
2657;DHT22;1338;48.176;11.792;2023-10-09T12:55:52;21.40;1.00
2657;DHT22;1338;48.176;11.792;2023-10-09T12:58:23;21.40;1.00
2657;DHT22;1338;48.176;11.792;2023-10-09T13:00:53;21.30;1.00
2657;DHT22;1338;48.176;11.792;2023-10-09T13:03:22;21.30;1.00
2657;DHT22;1338;48.176;11.792;2023-10-09T13:05:55;21.30;1.00
2657;DHT22;1338;48.176;11.792;2023-10-09T13:08:25;21.20;1.00
2657;DHT22;1338;48.176;11.792;2023-10-09T13:11:04;21.10;1.00
2657;DHT22;1338;48.176;11.792;2023-10-09T13:13:39;21.10;1.00
2657;DHT22;1338;48.176;11.792;2023-10-09T13:16:10;21.00;1.00
2657;DHT22;1338;48.176;11.792;2023-10-09T13:18:50;20.90;1.00
2657;DHT22;1338;48.176;11.792;2023-10-09T13:21:19;20.90;1.00
2657;DHT22;1338;48.176;11.792;2023-10-09T13:23:50;20.90;1.00
2657;DHT22;1338;48.176;11.792;2023-10-09T13:26:22;20.80;1.00
2657;DHT22;1338;48.176;11.792;2023-10-09T13:29:01;20.90;1.00
2657;DHT22;1338;48.176;11.792;2023-10-09T13:31:31;20.80;1.00
2657;DHT22;1338;48.176;11.792;2023-10-09T13:34:02;20.90;1.00
2657;DHT22;1338;48.176;11.792;2023-10-09T13:36:33;21.10;1.00
2657;DHT22;1338;48.176;11.792;2023-10-09T13:39:03;21.00;1.00
2657;DHT22;1338;48.176;11.792;2023-10-09T13:41:51;21.00;1.00
2657;DHT22;1338;48.176;11.792;2023-10-09T13:44:26;21.00;1.00
2657;DHT22;1338;48.176;11.792;2023-10-09T13:46:55;20.90;1.00
2657;DHT22;1338;48.176;11.792;2023-10-09T13:49:24;20.90;1.00
2657;DHT22;1338;48.176;11.792;2023-10-09T13:51:57;20.80;1.00
2657;DHT22;1338;48.176;11.792;2023-10-09T13:54:27;20.70;1.00
2657;DHT22;1338;48.176;11.792;2023-10-09T13:57:07;20.80;1.00
2657;DHT22;1338;48.176;11.792;2023-10-09T13:59:38;20.80;1.00
2657;DHT22;1338;48.176;11.792;2023-10-09T14:02:10;20.50;1.00
2657;DHT22;1338;48.176;11.792;2023-10-09T14:04:45;20.10;1.00
2657;DHT22;1338;48.176;11.792;2023-10-09T14:07:15;19.70;1.00
2657;DHT22;1338;48.176;11.792;2023-10-09T14:09:45;19.50;1.00
2657;DHT22;1338;48.176;11.792;2023-10-09T14:12:24;19.20;1.00
2657;DHT22;1338;48.176;11.792;2023-10-09T14:14:56;19.10;1.00
2657;DHT22;1338;48.176;11.792;2023-10-09T14:17:25;18.90;1.00
2657;DHT22;1338;48.176;11.792;2023-10-09T14:19:56;18.50;1.00
2657;DHT22;1338;48.176;11.792;2023-10-09T14:22:46;19.10;1.00
2657;DHT22;1338;48.176;11.792;2023-10-09T14:25:20;18.90;1.00
2657;DHT22;1338;48.176;11.792;2023-10-09T14:27:50;19.00;1.00
2657;DHT22;1338;48.176;11.792;2023-10-09T14:30:20;19.00;1.00
2657;DHT22;1338;48.176;11.792;2023-10-09T14:32:58;19.00;1.00
2657;DHT22;1338;48.176;11.792;2023-10-09T14:35:32;19.10;1.00
2657;DHT22;1338;48.176;11.792;2023-10-09T14:38:01;19.10;1.00
2657;DHT22;1338;48.176;11.792;2023-10-09T14:40:32;19.10;1.00
2657;DHT22;1338;48.176;11.792;2023-10-09T14:43:02;19.00;1.00
2657;DHT22;1338;48.176;11.792;2023-10-09T14:45:31;19.00;1.00
2657;DHT22;1338;48.176;11.792;2023-10-09T14:47:59;19.00;1.00
2657;DHT22;1338;48.176;11.792;2023-10-09T14:50:28;18.90;1.00
2657;DHT22;1338;48.176;11.792;2023-10-09T14:52:57;18.90;1.00
2657;DHT22;1338;48.176;11.792;2023-10-09T14:55:28;18.90;1.00
2657;DHT22;1338;48.176;11.792;2023-10-09T14:57:58;18.90;1.00
2657;DHT22;1338;48.176;11.792;2023-10-09T15:00:28;18.90;1.00
2657;DHT22;1338;48.176;11.792;2023-10-09T15:03:01;18.80;1.00
2657;DHT22;1338;48.176;11.792;2023-10-09T15:05:34;18.80;1.00
2657;DHT22;1338;48.176;11.792;2023-10-09T15:08:03;18.70;1.00
2657;DHT22;1338;48.176;11.792;2023-10-09T15:10:45;18.60;1.00
2657;DHT22;1338;48.176;11.792;2023-10-09T15:13:15;18.50;1.00
2657;DHT22;1338;48.176;11.792;2023-10-09T15:15:46;18.50;1.00
2657;DHT22;1338;48.176;11.792;2023-10-09T15:18:18;18.50;1.00
2657;DHT22;1338;48.176;11.792;2023-10-09T15:20:49;18.60;1.00
2657;DHT22;1338;48.176;11.792;2023-10-09T15:23:18;18.60;1.00
2657;DHT22;1338;48.176;11.792;2023-10-09T15:25:47;18.60;1.00
2657;DHT22;1338;48.176;11.792;2023-10-09T15:28:19;18.60;1.00
2657;DHT22;1338;48.176;11.792;2023-10-09T15:30:48;18.50;1.00
2657;DHT22;1338;48.176;11.792;2023-10-09T15:33:17;18.50;1.00
2657;DHT22;1338;48.176;11.792;2023-10-09T15:35:47;18.50;1.00
2657;DHT22;1338;48.176;11.792;2023-10-09T15:38:16;18.50;1.00
2657;DHT22;1338;48.176;11.792;2023-10-09T15:40:47;18.40;1.00
2657;DHT22;1338;48.176;11.792;2023-10-09T15:43:15;18.50;1.00
2657;DHT22;1338;48.176;11.792;2023-10-09T15:45:44;18.60;1.00
2657;DHT22;1338;48.176;11.792;2023-10-09T15:48:16;18.70;1.00
2657;DHT22;1338;48.176;11.792;2023-10-09T15:50:49;18.60;1.00
2657;DHT22;1338;48.176;11.792;2023-10-09T15:53:18;18.70;1.00
2657;DHT22;1338;48.176;11.792;2023-10-09T15:55:48;18.70;1.00
2657;DHT22;1338;48.176;11.792;2023-10-09T15:58:19;18.70;1.00
2657;DHT22;1338;48.176;11.792;2023-10-09T16:00:47;18.70;1.00
2657;DHT22;1338;48.176;11.792;2023-10-09T16:03:17;18.70;1.00
2657;DHT22;1338;48.176;11.792;2023-10-09T16:05:46;18.60;1.00
2657;DHT22;1338;48.176;11.792;2023-10-09T16:08:14;18.50;1.00
2657;DHT22;1338;48.176;11.792;2023-10-09T16:10:46;18.60;1.00
2657;DHT22;1338;48.176;11.792;2023-10-09T16:13:15;18.60;1.00
2657;DHT22;1338;48.176;11.792;2023-10-09T16:15:44;18.50;1.00
2657;DHT22;1338;48.176;11.792;2023-10-09T16:18:12;18.50;1.00
2657;DHT22;1338;48.176;11.792;2023-10-09T16:20:42;18.50;1.00
2657;DHT22;1338;48.176;11.792;2023-10-09T16:23:13;18.30;1.00
2657;DHT22;1338;48.176;11.792;2023-10-09T16:25:41;18.30;1.00
2657;DHT22;1338;48.176;11.792;2023-10-09T16:28:10;18.30;1.00
2657;DHT22;1338;48.176;11.792;2023-10-09T16:30:38;18.40;1.00
2657;DHT22;1338;48.176;11.792;2023-10-09T16:33:07;18.30;1.00
2657;DHT22;1338;48.176;11.792;2023-10-09T16:35:36;18.20;1.00
2657;DHT22;1338;48.176;11.792;2023-10-09T16:38:08;18.20;1.00
2657;DHT22;1338;48.176;11.792;2023-10-09T16:40:42;18.10;1.00
2657;DHT22;1338;48.176;11.792;2023-10-09T16:43:16;18.00;1.00
2657;DHT22;1338;48.176;11.792;2023-10-09T16:45:49;18.00;1.00
2657;DHT22;1338;48.176;11.792;2023-10-09T16:48:18;18.00;1.00
2657;DHT22;1338;48.176;11.792;2023-10-09T16:50:46;17.90;1.00
2657;DHT22;1338;48.176;11.792;2023-10-09T16:53:15;17.80;1.00
2657;DHT22;1338;48.176;11.792;2023-10-09T16:55:44;17.80;1.00
2657;DHT22;1338;48.176;11.792;2023-10-09T16:58:12;17.80;1.00
2657;DHT22;1338;48.176;11.792;2023-10-09T17:00:56;17.70;1.00
2657;DHT22;1338;48.176;11.792;2023-10-09T17:03:37;17.60;1.00